sensor_id;sensor_type;location;lat;lon;timestamp;P1;durP1;ratioP1;P2;durP2;ratioP2
28796;SDS011;24974;54.444;18.560;2023-02-23T00:00:06;21.80;;;14.55;;
28796;SDS011;24974;54.444;18.560;2023-02-23T00:02:50;19.15;;;13.07;;
28796;SDS011;24974;54.444;18.560;2023-02-23T00:05:21;22.23;;;13.77;;
28796;SDS011;24974;54.444;18.560;2023-02-23T00:07:52;22.92;;;14.55;;
28796;SDS011;24974;54.444;18.560;2023-02-23T00:10:24;22.20;;;14.75;;
28796;SDS011;24974;54.444;18.560;2023-02-23T06:21:06;25.48;;;14.60;;
28796;SDS011;24974;54.444;18.560;2023-02-23T06:23:38;21.73;;;14.65;;
28796;SDS011;24974;54.444;18.560;2023-02-23T06:26:08;20.60;;;13.15;;
28796;SDS011;24974;54.444;18.560;2023-02-23T06:28:39;20.05;;;13.15;;
28796;SDS011;24974;54.444;18.560;2023-02-23T06:31:10;25.05;;;15.30;;
28796;SDS011;24974;54.444;18.560;2023-02-23T06:33:41;25.20;;;14.57;;
28796;SDS011;24974;54.444;18.560;2023-02-23T06:36:12;25.80;;;14.85;;
28796;SDS011;24974;54.444;18.560;2023-02-23T06:38:43;27.05;;;16.27;;
28796;SDS011;24974;54.444;18.560;2023-02-23T06:41:14;23.13;;;15.30;;
28796;SDS011;24974;54.444;18.560;2023-02-23T06:43:45;24.55;;;15.93;;
28796;SDS011;24974;54.444;18.560;2023-02-23T06:46:16;22.55;;;14.63;;
28796;SDS011;24974;54.444;18.560;2023-02-23T06:48:47;24.17;;;15.75;;
28796;SDS011;24974;54.444;18.560;2023-02-23T06:51:18;23.48;;;14.68;;
28796;SDS011;24974;54.444;18.560;2023-02-23T06:53:49;24.85;;;15.27;;
28796;SDS011;24974;54.444;18.560;2023-02-23T06:56:21;20.35;;;14.10;;
28796;SDS011;24974;54.444;18.560;2023-02-23T06:58:52;24.65;;;15.45;;
28796;SDS011;24974;54.444;18.560;2023-02-23T07:01:24;25.33;;;15.68;;
28796;SDS011;24974;54.444;18.560;2023-02-23T07:03:55;25.33;;;15.07;;
28796;SDS011;24974;54.444;18.560;2023-02-23T07:06:26;23.85;;;14.88;;
28796;SDS011;24974;54.444;18.560;2023-02-23T07:08:57;23.13;;;15.32;;
28796;SDS011;24974;54.444;18.560;2023-02-23T07:11:28;26.27;;;13.98;;
28796;SDS011;24974;54.444;18.560;2023-02-23T07:13:59;25.73;;;16.70;;
28796;SDS011;24974;54.444;18.560;2023-02-23T07:16:30;23.67;;;15.18;;
28796;SDS011;24974;54.444;18.560;2023-02-23T07:19:02;24.55;;;16.45;;
28796;SDS011;24974;54.444;18.560;2023-02-23T07:21:35;29.00;;;16.33;;
28796;SDS011;24974;54.444;18.560;2023-02-23T07:24:06;26.98;;;16.13;;
28796;SDS011;24974;54.444;18.560;2023-02-23T07:26:38;28.67;;;16.08;;
28796;SDS011;24974;54.444;18.560;2023-02-23T07:29:10;26.15;;;16.25;;
28796;SDS011;24974;54.444;18.560;2023-02-23T07:31:41;29.60;;;17.10;;
28796;SDS011;24974;54.444;18.560;2023-02-23T07:34:12;26.80;;;17.10;;
28796;SDS011;24974;54.444;18.560;2023-02-23T07:36:43;34.13;;;17.75;;
28796;SDS011;24974;54.444;18.560;2023-02-23T07:39:13;24.75;;;15.45;;
28796;SDS011;24974;54.444;18.560;2023-02-23T07:41:44;28.95;;;16.17;;
28796;SDS011;24974;54.444;18.560;2023-02-23T07:44:22;24.98;;;16.60;;
28796;SDS011;24974;54.444;18.560;2023-02-23T07:46:53;28.00;;;16.15;;
28796;SDS011;24974;54.444;18.560;2023-02-23T07:49:23;29.88;;;17.50;;
28796;SDS011;24974;54.444;18.560;2023-02-23T07:51:55;30.67;;;18.30;;
28796;SDS011;24974;54.444;18.560;2023-02-23T07:54:26;32.00;;;17.38;;
28796;SDS011;24974;54.444;18.560;2023-02-23T07:56:56;28.08;;;16.95;;
28796;SDS011;24974;54.444;18.560;2023-02-23T07:59:28;28.48;;;15.75;;
28796;SDS011;24974;54.444;18.560;2023-02-23T08:01:59;31.20;;;16.80;;
28796;SDS011;24974;54.444;18.560;2023-02-23T08:04:30;32.28;;;16.63;;
28796;SDS011;24974;54.444;18.560;2023-02-23T08:07:01;23.25;;;13.75;;
28796;SDS011;24974;54.444;18.560;2023-02-23T08:09:32;35.58;;;21.88;;
28796;SDS011;24974;54.444;18.560;2023-02-23T08:12:04;22.40;;;13.45;;
28796;SDS011;24974;54.444;18.560;2023-02-23T08:14:35;26.27;;;16.40;;
28796;SDS011;24974;54.444;18.560;2023-02-23T08:17:06;23.73;;;16.27;;
28796;SDS011;24974;54.444;18.560;2023-02-23T08:19:37;25.15;;;15.55;;
28796;SDS011;24974;54.444;18.560;2023-02-23T08:22:09;30.08;;;16.70;;
28796;SDS011;24974;54.444;18.560;2023-02-23T08:24:40;29.90;;;16.45;;
28796;SDS011;24974;54.444;18.560;2023-02-23T08:27:11;25.92;;;17.63;;
28796;SDS011;24974;54.444;18.560;2023-02-23T08:29:43;30.83;;;18.38;;
28796;SDS011;24974;54.444;18.560;2023-02-23T08:32:14;24.17;;;15.57;;
28796;SDS011;24974;54.444;18.560;2023-02-23T08:34:44;30.10;;;17.58;;
28796;SDS011;24974;54.444;18.560;2023-02-23T08:37:15;29.98;;;15.63;;
28796;SDS011;24974;54.444;18.560;2023-02-23T08:39:46;28.45;;;16.70;;
28796;SDS011;24974;54.444;18.560;2023-02-23T08:42:17;22.60;;;15.18;;
28796;SDS011;24974;54.444;18.560;2023-02-23T08:44:48;27.58;;;16.83;;
28796;SDS011;24974;54.444;18.560;2023-02-23T08:47:19;26.75;;;16.17;;
28796;SDS011;24974;54.444;18.560;2023-02-23T08:49:53;26.13;;;16.33;;
28796;SDS011;24974;54.444;18.560;2023-02-23T08:52:24;29.30;;;16.38;;
28796;SDS011;24974;54.444;18.560;2023-02-23T08:54:55;28.42;;;18.23;;
28796;SDS011;24974;54.444;18.560;2023-02-23T08:57:27;24.67;;;16.25;;
28796;SDS011;24974;54.444;18.560;2023-02-23T08:59:58;31.20;;;18.25;;
28796;SDS011;24974;54.444;18.560;2023-02-23T09:02:28;32.05;;;18.42;;
28796;SDS011;24974;54.444;18.560;2023-02-23T09:04:59;23.65;;;15.23;;
28796;SDS011;24974;54.444;18.560;2023-02-23T09:07:30;30.00;;;17.60;;
28796;SDS011;24974;54.444;18.560;2023-02-23T09:10:01;25.70;;;16.58;;
28796;SDS011;24974;54.444;18.560;2023-02-23T09:12:32;29.05;;;16.17;;
28796;SDS011;24974;54.444;18.560;2023-02-23T09:15:03;25.40;;;16.17;;
28796;SDS011;24974;54.444;18.560;2023-02-23T09:17:34;24.45;;;15.65;;
28796;SDS011;24974;54.444;18.560;2023-02-23T09:20:05;25.25;;;16.75;;
28796;SDS011;24974;54.444;18.560;2023-02-23T09:22:37;21.60;;;14.70;;
28796;SDS011;24974;54.444;18.560;2023-02-23T09:25:07;20.67;;;13.57;;
28796;SDS011;24974;54.444;18.560;2023-02-23T09:27:39;23.30;;;14.13;;
28796;SDS011;24974;54.444;18.560;2023-02-23T09:30:10;22.83;;;12.25;;
28796;SDS011;24974;54.444;18.560;2023-02-23T09:32:46;23.38;;;15.07;;
28796;SDS011;24974;54.444;18.560;2023-02-23T09:35:18;24.40;;;15.75;;
28796;SDS011;24974;54.444;18.560;2023-02-23T09:37:51;28.35;;;17.00;;
28796;SDS011;24974;54.444;18.560;2023-02-23T09:40:28;27.60;;;17.00;;
28796;SDS011;24974;54.444;18.560;2023-02-23T09:45:39;25.57;;;16.50;;
28796;SDS011;24974;54.444;18.560;2023-02-23T09:50:52;28.75;;;16.60;;
28796;SDS011;24974;54.444;18.560;2023-02-23T09:56:17;20.98;;;12.40;;
28796;SDS011;24974;54.444;18.560;2023-02-23T09:58:58;27.20;;;18.00;;
28796;SDS011;24974;54.444;18.560;2023-02-23T10:04:39;25.15;;;15.13;;
28796;SDS011;24974;54.444;18.560;2023-02-23T10:10:31;25.70;;;15.43;;
28796;SDS011;24974;54.444;18.560;2023-02-23T10:19:10;23.50;;;15.57;;
28796;SDS011;24974;54.444;18.560;2023-02-23T10:21:50;25.52;;;16.38;;
28796;SDS011;24974;54.444;18.560;2023-02-23T10:24:27;25.42;;;16.67;;
28796;SDS011;24974;54.444;18.560;2023-02-23T10:27:18;23.73;;;15.60;;
28796;SDS011;24974;54.444;18.560;2023-02-23T10:29:52;27.50;;;17.75;;
28796;SDS011;24974;54.444;18.560;2023-02-23T10:34:58;27.25;;;17.15;;
28796;SDS011;24974;54.444;18.560;2023-02-23T10:37:29;22.73;;;15.15;;
28796;SDS011;24974;54.444;18.560;2023-02-23T10:40:00;24.20;;;16.42;;
28796;SDS011;24974;54.444;18.560;2023-02-23T10:42:31;27.10;;;17.67;;
28796;SDS011;24974;54.444;18.560;2023-02-23T10:45:10;26.75;;;16.40;;
28796;SDS011;24974;54.444;18.560;2023-02-23T10:48:03;26.67;;;17.45;;
28796;SDS011;24974;54.444;18.560;2023-02-23T10:50:37;30.63;;;18.27;;
28796;SDS011;24974;54.444;18.560;2023-02-23T10:53:12;30.65;;;17.55;;
28796;SDS011;24974;54.444;18.560;2023-02-23T10:55:58;25.42;;;16.63;;
28796;SDS011;24974;54.444;18.560;2023-02-23T10:58:54;28.13;;;17.45;;
28796;SDS011;24974;54.444;18.560;2023-02-23T11:04:20;27.92;;;17.67;;
28796;SDS011;24974;54.444;18.560;2023-02-23T11:09:51;31.55;;;16.92;;
28796;SDS011;24974;54.444;18.560;2023-02-23T11:12:24;26.90;;;16.60;;
28796;SDS011;24974;54.444;18.560;2023-02-23T11:17:55;28.85;;;15.95;;
28796;SDS011;24974;54.444;18.560;2023-02-23T11:23:15;26.30;;;16.58;;
28796;SDS011;24974;54.444;18.560;2023-02-23T11:25:51;27.33;;;17.00;;
28796;SDS011;24974;54.444;18.560;2023-02-23T11:28:30;24.65;;;16.42;;
28796;SDS011;24974;54.444;18.560;2023-02-23T11:31:14;24.13;;;15.85;;
28796;SDS011;24974;54.444;18.560;2023-02-23T11:33:48;29.85;;;17.05;;
28796;SDS011;24974;54.444;18.560;2023-02-23T11:39:01;26.67;;;17.83;;
28796;SDS011;24974;54.444;18.560;2023-02-23T11:41:35;28.90;;;19.05;;
28796;SDS011;24974;54.444;18.560;2023-02-23T11:44:08;25.58;;;17.10;;
28796;SDS011;24974;54.444;18.560;2023-02-23T11:46:50;25.38;;;16.60;;
28796;SDS011;24974;54.444;18.560;2023-02-23T11:49:26;28.95;;;18.50;;
28796;SDS011;24974;54.444;18.560;2023-02-23T11:52:01;26.17;;;17.48;;
28796;SDS011;24974;54.444;18.560;2023-02-23T11:54:33;27.75;;;17.08;;
28796;SDS011;24974;54.444;18.560;2023-02-23T11:57:04;26.38;;;17.70;;
28796;SDS011;24974;54.444;18.560;2023-02-23T11:59:38;30.85;;;18.15;;
28796;SDS011;24974;54.444;18.560;2023-02-23T12:15:47;26.52;;;17.88;;
28796;SDS011;24974;54.444;18.560;2023-02-23T12:21:49;30.08;;;17.30;;
28796;SDS011;24974;54.444;18.560;2023-02-23T12:27:07;33.25;;;19.10;;
28796;SDS011;24974;54.444;18.560;2023-02-23T12:35:41;35.35;;;20.30;;
28796;SDS011;24974;54.444;18.560;2023-02-23T12:41:10;33.10;;;20.17;;
28796;SDS011;24974;54.444;18.560;2023-02-23T12:47:03;33.38;;;20.73;;
28796;SDS011;24974;54.444;18.560;2023-02-23T12:52:44;30.65;;;18.27;;
28796;SDS011;24974;54.444;18.560;2023-02-23T13:02:02;35.80;;;20.33;;
28796;SDS011;24974;54.444;18.560;2023-02-23T13:25:52;33.58;;;21.58;;
28796;SDS011;24974;54.444;18.560;2023-02-23T13:28:08;31.08;;;20.33;;
28796;SDS011;24974;54.444;18.560;2023-02-23T13:30:47;34.28;;;18.73;;
28796;SDS011;24974;54.444;18.560;2023-02-23T13:33:27;33.65;;;20.83;;
28796;SDS011;24974;54.444;18.560;2023-02-23T13:36:03;31.52;;;20.42;;
28796;SDS011;24974;54.444;18.560;2023-02-23T13:44:34;32.35;;;21.80;;
28796;SDS011;24974;54.444;18.560;2023-02-23T13:56:16;34.28;;;21.65;;
28796;SDS011;24974;54.444;18.560;2023-02-23T13:59:02;35.35;;;20.30;;
28796;SDS011;24974;54.444;18.560;2023-02-23T14:01:39;34.58;;;21.30;;
28796;SDS011;24974;54.444;18.560;2023-02-23T14:09:42;36.58;;;21.17;;
28796;SDS011;24974;54.444;18.560;2023-02-23T14:12:23;37.40;;;22.20;;
28796;SDS011;24974;54.444;18.560;2023-02-23T14:18:02;36.15;;;21.63;;
28796;SDS011;24974;54.444;18.560;2023-02-23T14:21:10;38.28;;;22.60;;
28796;SDS011;24974;54.444;18.560;2023-02-23T14:29:40;40.28;;;23.05;;
28796;SDS011;24974;54.444;18.560;2023-02-23T14:37:27;36.83;;;22.80;;
28796;SDS011;24974;54.444;18.560;2023-02-23T14:43:27;37.27;;;21.97;;
28796;SDS011;24974;54.444;18.560;2023-02-23T14:48:55;34.40;;;20.45;;
28796;SDS011;24974;54.444;18.560;2023-02-23T14:51:36;37.25;;;21.85;;
28796;SDS011;24974;54.444;18.560;2023-02-23T14:54:21;37.72;;;22.08;;
28796;SDS011;24974;54.444;18.560;2023-02-23T14:57:13;34.50;;;20.95;;
28796;SDS011;24974;54.444;18.560;2023-02-23T15:00:00;32.70;;;21.35;;
28796;SDS011;24974;54.444;18.560;2023-02-23T15:02:36;39.78;;;22.40;;
28796;SDS011;24974;54.444;18.560;2023-02-23T15:05:13;36.42;;;22.75;;
28796;SDS011;24974;54.444;18.560;2023-02-23T15:07:48;29.27;;;19.67;;
28796;SDS011;24974;54.444;18.560;2023-02-23T15:10:23;37.17;;;22.17;;
28796;SDS011;24974;54.444;18.560;2023-02-23T15:12:58;33.00;;;20.75;;
28796;SDS011;24974;54.444;18.560;2023-02-23T15:15:31;36.35;;;21.27;;
28796;SDS011;24974;54.444;18.560;2023-02-23T15:18:02;33.03;;;21.88;;
28796;SDS011;24974;54.444;18.560;2023-02-23T15:20:33;41.70;;;23.38;;
28796;SDS011;24974;54.444;18.560;2023-02-23T15:23:04;35.47;;;22.23;;
28796;SDS011;24974;54.444;18.560;2023-02-23T15:25:37;36.95;;;22.73;;
28796;SDS011;24974;54.444;18.560;2023-02-23T15:28:30;33.90;;;21.65;;
28796;SDS011;24974;54.444;18.560;2023-02-23T15:31:02;39.10;;;23.67;;
28796;SDS011;24974;54.444;18.560;2023-02-23T15:33:40;37.45;;;22.77;;
28796;SDS011;24974;54.444;18.560;2023-02-23T15:36:14;35.42;;;23.15;;
28796;SDS011;24974;54.444;18.560;2023-02-23T15:38:54;38.40;;;24.40;;
28796;SDS011;24974;54.444;18.560;2023-02-23T15:46:57;41.92;;;25.38;;
28796;SDS011;24974;54.444;18.560;2023-02-23T15:49:30;40.50;;;22.90;;
28796;SDS011;24974;54.444;18.560;2023-02-23T15:52:06;41.42;;;23.33;;
28796;SDS011;24974;54.444;18.560;2023-02-23T15:54:56;36.03;;;22.02;;
28796;SDS011;24974;54.444;18.560;2023-02-23T15:57:32;38.15;;;23.60;;
28796;SDS011;24974;54.444;18.560;2023-02-23T16:00:14;46.60;;;23.83;;
28796;SDS011;24974;54.444;18.560;2023-02-23T16:03:07;38.17;;;23.67;;
28796;SDS011;24974;54.444;18.560;2023-02-23T16:05:54;42.10;;;24.00;;
28796;SDS011;24974;54.444;18.560;2023-02-23T16:08:29;42.08;;;24.98;;
28796;SDS011;24974;54.444;18.560;2023-02-23T16:11:06;44.15;;;24.38;;
28796;SDS011;24974;54.444;18.560;2023-02-23T16:13:41;42.15;;;24.02;;
28796;SDS011;24974;54.444;18.560;2023-02-23T16:16:14;40.58;;;23.88;;
28796;SDS011;24974;54.444;18.560;2023-02-23T16:18:56;43.00;;;23.58;;
28796;SDS011;24974;54.444;18.560;2023-02-23T16:21:31;43.90;;;23.42;;
28796;SDS011;24974;54.444;18.560;2023-02-23T16:24:09;46.60;;;26.33;;
28796;SDS011;24974;54.444;18.560;2023-02-23T16:26:54;51.22;;;26.20;;
28796;SDS011;24974;54.444;18.560;2023-02-23T16:29:30;45.22;;;26.55;;
28796;SDS011;24974;54.444;18.560;2023-02-23T16:32:01;42.45;;;26.27;;
28796;SDS011;24974;54.444;18.560;2023-02-23T16:34:34;42.75;;;25.90;;
28796;SDS011;24974;54.444;18.560;2023-02-23T16:37:18;41.30;;;25.67;;
28796;SDS011;24974;54.444;18.560;2023-02-23T16:39:53;39.30;;;20.38;;
28796;SDS011;24974;54.444;18.560;2023-02-23T16:42:31;49.58;;;26.48;;
28796;SDS011;24974;54.444;18.560;2023-02-23T16:45:04;44.33;;;25.90;;
28796;SDS011;24974;54.444;18.560;2023-02-23T16:47:45;45.17;;;26.23;;
28796;SDS011;24974;54.444;18.560;2023-02-23T16:50:20;46.50;;;24.88;;
28796;SDS011;24974;54.444;18.560;2023-02-23T16:52:53;44.88;;;26.88;;
28796;SDS011;24974;54.444;18.560;2023-02-23T16:55:25;45.92;;;27.85;;
28796;SDS011;24974;54.444;18.560;2023-02-23T16:57:58;49.45;;;26.60;;
28796;SDS011;24974;54.444;18.560;2023-02-23T17:00:33;44.13;;;26.73;;
28796;SDS011;24974;54.444;18.560;2023-02-23T17:03:04;48.55;;;26.38;;
28796;SDS011;24974;54.444;18.560;2023-02-23T17:05:35;45.35;;;25.95;;
28796;SDS011;24974;54.444;18.560;2023-02-23T17:08:15;50.42;;;27.55;;
28796;SDS011;24974;54.444;18.560;2023-02-23T17:10:47;47.17;;;27.33;;
28796;SDS011;24974;54.444;18.560;2023-02-23T17:13:24;48.42;;;27.73;;
28796;SDS011;24974;54.444;18.560;2023-02-23T17:15:56;49.53;;;27.70;;
28796;SDS011;24974;54.444;18.560;2023-02-23T17:18:28;45.60;;;27.30;;
28796;SDS011;24974;54.444;18.560;2023-02-23T17:21:05;46.13;;;26.40;;
28796;SDS011;24974;54.444;18.560;2023-02-23T17:23:39;42.42;;;26.58;;
28796;SDS011;24974;54.444;18.560;2023-02-23T17:26:23;47.65;;;27.75;;
28796;SDS011;24974;54.444;18.560;2023-02-23T17:28:55;44.60;;;27.67;;
28796;SDS011;24974;54.444;18.560;2023-02-23T17:31:26;46.15;;;26.83;;
28796;SDS011;24974;54.444;18.560;2023-02-23T17:33:56;49.13;;;27.85;;
28796;SDS011;24974;54.444;18.560;2023-02-23T17:36:27;54.10;;;28.27;;
28796;SDS011;24974;54.444;18.560;2023-02-23T17:38:58;48.15;;;27.52;;
28796;SDS011;24974;54.444;18.560;2023-02-23T17:41:29;40.78;;;25.58;;
28796;SDS011;24974;54.444;18.560;2023-02-23T17:44:00;47.08;;;27.98;;
28796;SDS011;24974;54.444;18.560;2023-02-23T17:46:34;43.70;;;26.92;;
28796;SDS011;24974;54.444;18.560;2023-02-23T17:49:06;45.85;;;27.48;;
28796;SDS011;24974;54.444;18.560;2023-02-23T17:51:36;45.63;;;26.15;;
28796;SDS011;24974;54.444;18.560;2023-02-23T17:54:07;47.75;;;27.27;;
28796;SDS011;24974;54.444;18.560;2023-02-23T17:56:38;45.90;;;27.63;;
28796;SDS011;24974;54.444;18.560;2023-02-23T17:59:09;46.90;;;28.48;;
28796;SDS011;24974;54.444;18.560;2023-02-23T18:01:40;51.97;;;30.50;;
28796;SDS011;24974;54.444;18.560;2023-02-23T18:04:10;47.97;;;28.55;;
28796;SDS011;24974;54.444;18.560;2023-02-23T18:06:41;52.83;;;29.83;;
28796;SDS011;24974;54.444;18.560;2023-02-23T18:09:12;46.33;;;28.73;;
28796;SDS011;24974;54.444;18.560;2023-02-23T18:11:43;48.50;;;28.02;;
28796;SDS011;24974;54.444;18.560;2023-02-23T18:14:15;45.38;;;27.38;;
28796;SDS011;24974;54.444;18.560;2023-02-23T18:16:47;50.13;;;28.33;;
28796;SDS011;24974;54.444;18.560;2023-02-23T18:19:18;53.22;;;28.88;;
28796;SDS011;24974;54.444;18.560;2023-02-23T18:21:49;47.70;;;27.25;;
28796;SDS011;24974;54.444;18.560;2023-02-23T18:24:25;49.90;;;28.30;;
28796;SDS011;24974;54.444;18.560;2023-02-23T18:26:57;51.15;;;28.77;;
28796;SDS011;24974;54.444;18.560;2023-02-23T18:29:32;53.90;;;29.20;;
28796;SDS011;24974;54.444;18.560;2023-02-23T18:32:04;53.80;;;29.30;;
28796;SDS011;24974;54.444;18.560;2023-02-23T18:34:36;53.75;;;28.63;;
28796;SDS011;24974;54.444;18.560;2023-02-23T18:37:07;50.50;;;30.40;;
28796;SDS011;24974;54.444;18.560;2023-02-23T18:39:39;46.58;;;28.15;;
28796;SDS011;24974;54.444;18.560;2023-02-23T18:42:09;48.10;;;26.88;;
28796;SDS011;24974;54.444;18.560;2023-02-23T18:44:40;37.65;;;23.73;;
28796;SDS011;24974;54.444;18.560;2023-02-23T18:47:11;48.47;;;29.15;;
28796;SDS011;24974;54.444;18.560;2023-02-23T18:49:42;51.35;;;28.75;;
28796;SDS011;24974;54.444;18.560;2023-02-23T18:52:13;45.72;;;26.15;;
28796;SDS011;24974;54.444;18.560;2023-02-23T18:54:44;46.80;;;29.25;;
28796;SDS011;24974;54.444;18.560;2023-02-23T18:57:14;48.53;;;28.98;;
28796;SDS011;24974;54.444;18.560;2023-02-23T18:59:45;47.78;;;28.75;;
28796;SDS011;24974;54.444;18.560;2023-02-23T19:02:16;51.15;;;29.63;;
28796;SDS011;24974;54.444;18.560;2023-02-23T19:04:48;50.47;;;30.13;;
28796;SDS011;24974;54.444;18.560;2023-02-23T19:07:18;49.40;;;31.17;;
28796;SDS011;24974;54.444;18.560;2023-02-23T19:09:49;56.58;;;29.63;;
28796;SDS011;24974;54.444;18.560;2023-02-23T19:12:21;51.33;;;31.05;;
28796;SDS011;24974;54.444;18.560;2023-02-23T19:14:51;53.08;;;28.63;;
28796;SDS011;24974;54.444;18.560;2023-02-23T19:17:23;58.72;;;31.67;;
28796;SDS011;24974;54.444;18.560;2023-02-23T19:19:54;57.85;;;32.10;;
28796;SDS011;24974;54.444;18.560;2023-02-23T19:22:26;55.55;;;32.15;;
28796;SDS011;24974;54.444;18.560;2023-02-23T19:24:58;56.38;;;32.55;;
28796;SDS011;24974;54.444;18.560;2023-02-23T19:27:29;60.10;;;31.88;;
28796;SDS011;24974;54.444;18.560;2023-02-23T19:30:00;64.10;;;32.53;;
28796;SDS011;24974;54.444;18.560;2023-02-23T19:32:31;54.15;;;31.25;;
28796;SDS011;24974;54.444;18.560;2023-02-23T19:35:02;60.03;;;29.80;;
28796;SDS011;24974;54.444;18.560;2023-02-23T19:37:33;58.03;;;31.15;;
28796;SDS011;24974;54.444;18.560;2023-02-23T19:40:04;56.17;;;30.25;;
28796;SDS011;24974;54.444;18.560;2023-02-23T19:42:35;57.78;;;31.00;;
28796;SDS011;24974;54.444;18.560;2023-02-23T19:45:13;66.28;;;35.17;;
28796;SDS011;24974;54.444;18.560;2023-02-23T19:47:44;61.42;;;34.40;;
28796;SDS011;24974;54.444;18.560;2023-02-23T19:50:15;57.67;;;34.70;;
28796;SDS011;24974;54.444;18.560;2023-02-23T19:52:46;67.05;;;35.35;;
28796;SDS011;24974;54.444;18.560;2023-02-23T19:55:18;63.90;;;35.40;;
28796;SDS011;24974;54.444;18.560;2023-02-23T19:57:51;73.78;;;36.88;;
28796;SDS011;24974;54.444;18.560;2023-02-23T20:00:22;75.88;;;36.83;;
28796;SDS011;24974;54.444;18.560;2023-02-23T20:02:53;66.95;;;35.42;;
28796;SDS011;24974;54.444;18.560;2023-02-23T20:05:24;73.63;;;38.58;;
28796;SDS011;24974;54.444;18.560;2023-02-23T20:07:54;77.10;;;37.72;;
28796;SDS011;24974;54.444;18.560;2023-02-23T20:10:25;69.47;;;36.90;;
28796;SDS011;24974;54.444;18.560;2023-02-23T20:12:58;76.15;;;38.35;;
28796;SDS011;24974;54.444;18.560;2023-02-23T20:15:30;67.18;;;36.50;;
28796;SDS011;24974;54.444;18.560;2023-02-23T20:18:01;63.70;;;38.10;;
28796;SDS011;24974;54.444;18.560;2023-02-23T20:20:32;74.15;;;40.15;;
28796;SDS011;24974;54.444;18.560;2023-02-23T20:23:04;77.45;;;40.42;;
28796;SDS011;24974;54.444;18.560;2023-02-23T20:25:39;73.47;;;36.20;;
28796;SDS011;24974;54.444;18.560;2023-02-23T20:28:11;70.22;;;36.90;;
28796;SDS011;24974;54.444;18.560;2023-02-23T20:30:45;74.07;;;39.70;;
28796;SDS011;24974;54.444;18.560;2023-02-23T20:33:17;71.50;;;38.28;;
28796;SDS011;24974;54.444;18.560;2023-02-23T20:35:47;70.40;;;39.38;;
28796;SDS011;24974;54.444;18.560;2023-02-23T20:38:18;74.20;;;41.80;;
28796;SDS011;24974;54.444;18.560;2023-02-23T20:40:49;77.30;;;39.67;;
28796;SDS011;24974;54.444;18.560;2023-02-23T20:43:20;69.53;;;39.33;;
28796;SDS011;24974;54.444;18.560;2023-02-23T20:45:51;72.03;;;39.53;;
28796;SDS011;24974;54.444;18.560;2023-02-23T20:48:22;73.20;;;40.05;;
28796;SDS011;24974;54.444;18.560;2023-02-23T20:50:53;74.72;;;39.03;;
28796;SDS011;24974;54.444;18.560;2023-02-23T20:53:25;74.18;;;41.60;;
28796;SDS011;24974;54.444;18.560;2023-02-23T20:55:56;79.25;;;42.13;;
28796;SDS011;24974;54.444;18.560;2023-02-23T20:58:27;77.40;;;40.38;;
28796;SDS011;24974;54.444;18.560;2023-02-23T21:00:58;81.70;;;42.75;;
28796;SDS011;24974;54.444;18.560;2023-02-23T21:03:34;81.05;;;43.92;;
28796;SDS011;24974;54.444;18.560;2023-02-23T21:06:05;82.63;;;41.58;;
28796;SDS011;24974;54.444;18.560;2023-02-23T21:08:36;86.60;;;43.47;;
28796;SDS011;24974;54.444;18.560;2023-02-23T21:11:07;79.65;;;43.15;;
28796;SDS011;24974;54.444;18.560;2023-02-23T21:13:38;78.78;;;41.85;;
28796;SDS011;24974;54.444;18.560;2023-02-23T21:16:13;79.63;;;42.25;;
28796;SDS011;24974;54.444;18.560;2023-02-23T21:18:45;84.10;;;45.27;;
28796;SDS011;24974;54.444;18.560;2023-02-23T21:21:15;87.45;;;45.08;;
28796;SDS011;24974;54.444;18.560;2023-02-23T21:23:46;82.22;;;43.95;;
28796;SDS011;24974;54.444;18.560;2023-02-23T21:26:18;88.68;;;43.85;;
28796;SDS011;24974;54.444;18.560;2023-02-23T21:28:50;73.03;;;39.00;;
28796;SDS011;24974;54.444;18.560;2023-02-23T21:31:21;81.05;;;41.72;;
28796;SDS011;24974;54.444;18.560;2023-02-23T21:33:52;82.53;;;42.80;;
28796;SDS011;24974;54.444;18.560;2023-02-23T21:36:23;78.70;;;41.00;;
28796;SDS011;24974;54.444;18.560;2023-02-23T21:38:54;76.60;;;41.17;;
28796;SDS011;24974;54.444;18.560;2023-02-23T21:41:27;77.90;;;41.13;;
28796;SDS011;24974;54.444;18.560;2023-02-23T21:44:03;90.22;;;44.72;;
28796;SDS011;24974;54.444;18.560;2023-02-23T21:46:35;87.97;;;44.72;;
28796;SDS011;24974;54.444;18.560;2023-02-23T21:49:06;86.20;;;43.72;;
28796;SDS011;24974;54.444;18.560;2023-02-23T21:51:39;88.00;;;46.33;;
28796;SDS011;24974;54.444;18.560;2023-02-23T21:54:10;90.95;;;45.90;;
28796;SDS011;24974;54.444;18.560;2023-02-23T21:56:41;93.00;;;44.97;;
28796;SDS011;24974;54.444;18.560;2023-02-23T21:59:11;91.78;;;48.70;;
28796;SDS011;24974;54.444;18.560;2023-02-23T22:01:42;81.63;;;42.83;;
28796;SDS011;24974;54.444;18.560;2023-02-23T22:04:13;90.07;;;43.22;;
28796;SDS011;24974;54.444;18.560;2023-02-23T22:06:44;105.93;;;50.83;;
28796;SDS011;24974;54.444;18.560;2023-02-23T22:09:15;84.95;;;44.40;;
28796;SDS011;24974;54.444;18.560;2023-02-23T22:11:46;87.32;;;45.97;;
28796;SDS011;24974;54.444;18.560;2023-02-23T22:14:17;86.95;;;43.55;;
28796;SDS011;24974;54.444;18.560;2023-02-23T22:16:48;86.13;;;43.45;;
28796;SDS011;24974;54.444;18.560;2023-02-23T22:19:19;108.50;;;54.67;;
28796;SDS011;24974;54.444;18.560;2023-02-23T22:21:49;87.32;;;43.47;;
28796;SDS011;24974;54.444;18.560;2023-02-23T22:24:20;84.78;;;43.97;;
28796;SDS011;24974;54.444;18.560;2023-02-23T22:26:51;87.25;;;44.95;;
28796;SDS011;24974;54.444;18.560;2023-02-23T22:29:25;89.47;;;43.42;;
28796;SDS011;24974;54.444;18.560;2023-02-23T22:31:56;90.22;;;44.83;;
28796;SDS011;24974;54.444;18.560;2023-02-23T22:34:27;79.97;;;42.70;;
28796;SDS011;24974;54.444;18.560;2023-02-23T22:36:58;78.60;;;42.13;;
28796;SDS011;24974;54.444;18.560;2023-02-23T22:39:28;85.60;;;43.63;;
28796;SDS011;24974;54.444;18.560;2023-02-23T22:42:02;79.68;;;41.85;;
28796;SDS011;24974;54.444;18.560;2023-02-23T22:44:38;84.47;;;43.73;;
28796;SDS011;24974;54.444;18.560;2023-02-23T22:47:09;87.82;;;43.55;;
28796;SDS011;24974;54.444;18.560;2023-02-23T22:49:40;88.03;;;43.38;;
28796;SDS011;24974;54.444;18.560;2023-02-23T22:52:11;86.03;;;44.30;;
28796;SDS011;24974;54.444;18.560;2023-02-23T22:54:42;92.03;;;45.42;;
28796;SDS011;24974;54.444;18.560;2023-02-23T22:57:15;95.13;;;44.20;;
28796;SDS011;24974;54.444;18.560;2023-02-23T22:59:46;91.43;;;45.78;;
28796;SDS011;24974;54.444;18.560;2023-02-23T23:02:24;88.47;;;42.42;;
28796;SDS011;24974;54.444;18.560;2023-02-23T23:04:55;88.90;;;42.83;;
28796;SDS011;24974;54.444;18.560;2023-02-23T23:07:29;91.28;;;43.92;;
28796;SDS011;24974;54.444;18.560;2023-02-23T23:10:03;83.07;;;43.70;;
28796;SDS011;24974;54.444;18.560;2023-02-23T23:12:35;86.85;;;43.47;;
28796;SDS011;24974;54.444;18.560;2023-02-23T23:15:06;88.65;;;44.70;;
28796;SDS011;24974;54.444;18.560;2023-02-23T23:17:44;85.90;;;44.28;;